sensor_id;sensor_type;location;lat;lon;timestamp;P1;durP1;ratioP1;P2;durP2;ratioP2
31660;SDS011;18267;52.234;7.444;2023-11-22T00:01:52;15.77;;;5.88;;
31660;SDS011;18267;52.234;7.444;2023-11-22T00:04:18;11.45;;;5.43;;
31660;SDS011;18267;52.234;7.444;2023-11-22T00:06:45;10.60;;;5.55;;
31660;SDS011;18267;52.234;7.444;2023-11-22T00:09:10;9.60;;;5.28;;
31660;SDS011;18267;52.234;7.444;2023-11-22T00:11:36;11.23;;;5.80;;
31660;SDS011;18267;52.234;7.444;2023-11-22T00:14:01;9.80;;;5.47;;
31660;SDS011;18267;52.234;7.444;2023-11-22T00:16:27;8.13;;;4.85;;
31660;SDS011;18267;52.234;7.444;2023-11-22T00:18:53;9.00;;;4.97;;
31660;SDS011;18267;52.234;7.444;2023-11-22T00:21:19;8.93;;;5.03;;
31660;SDS011;18267;52.234;7.444;2023-11-22T00:23:45;9.13;;;4.95;;
31660;SDS011;18267;52.234;7.444;2023-11-22T00:26:11;10.60;;;5.63;;
31660;SDS011;18267;52.234;7.444;2023-11-22T00:28:37;10.93;;;5.18;;
31660;SDS011;18267;52.234;7.444;2023-11-22T00:31:03;9.70;;;5.13;;
31660;SDS011;18267;52.234;7.444;2023-11-22T00:33:28;10.88;;;5.63;;
31660;SDS011;18267;52.234;7.444;2023-11-22T00:35:54;6.95;;;4.72;;
31660;SDS011;18267;52.234;7.444;2023-11-22T00:38:21;12.00;;;5.38;;
31660;SDS011;18267;52.234;7.444;2023-11-22T00:40:47;11.73;;;5.53;;
31660;SDS011;18267;52.234;7.444;2023-11-22T00:43:12;13.48;;;5.47;;
31660;SDS011;18267;52.234;7.444;2023-11-22T00:45:38;11.50;;;5.72;;
31660;SDS011;18267;52.234;7.444;2023-11-22T00:48:04;10.52;;;4.90;;
31660;SDS011;18267;52.234;7.444;2023-11-22T00:50:30;8.60;;;4.82;;
31660;SDS011;18267;52.234;7.444;2023-11-22T00:52:55;9.77;;;4.65;;
31660;SDS011;18267;52.234;7.444;2023-11-22T00:55:21;11.38;;;5.63;;
31660;SDS011;18267;52.234;7.444;2023-11-22T00:57:46;14.95;;;5.68;;
31660;SDS011;18267;52.234;7.444;2023-11-22T01:00:12;10.23;;;4.65;;
31660;SDS011;18267;52.234;7.444;2023-11-22T01:02:40;11.60;;;4.55;;
31660;SDS011;18267;52.234;7.444;2023-11-22T01:05:08;8.10;;;4.88;;
31660;SDS011;18267;52.234;7.444;2023-11-22T01:07:35;13.40;;;5.55;;
31660;SDS011;18267;52.234;7.444;2023-11-22T01:10:02;13.50;;;5.53;;
31660;SDS011;18267;52.234;7.444;2023-11-22T01:12:27;10.25;;;5.28;;
31660;SDS011;18267;52.234;7.444;2023-11-22T01:14:53;12.88;;;5.10;;
31660;SDS011;18267;52.234;7.444;2023-11-22T01:17:18;11.52;;;5.13;;
31660;SDS011;18267;52.234;7.444;2023-11-22T01:19:44;10.00;;;5.57;;
31660;SDS011;18267;52.234;7.444;2023-11-22T01:22:09;11.73;;;6.20;;
31660;SDS011;18267;52.234;7.444;2023-11-22T01:24:35;9.18;;;5.30;;
31660;SDS011;18267;52.234;7.444;2023-11-22T01:27:02;13.95;;;6.32;;
31660;SDS011;18267;52.234;7.444;2023-11-22T01:29:28;10.93;;;5.80;;
31660;SDS011;18267;52.234;7.444;2023-11-22T01:31:54;13.35;;;6.15;;
31660;SDS011;18267;52.234;7.444;2023-11-22T01:34:20;16.83;;;6.47;;
31660;SDS011;18267;52.234;7.444;2023-11-22T01:36:46;9.43;;;5.25;;
31660;SDS011;18267;52.234;7.444;2023-11-22T01:39:14;11.57;;;5.40;;
31660;SDS011;18267;52.234;7.444;2023-11-22T01:41:40;12.32;;;6.28;;
31660;SDS011;18267;52.234;7.444;2023-11-22T01:44:09;13.88;;;6.07;;
31660;SDS011;18267;52.234;7.444;2023-11-22T01:46:34;9.70;;;5.65;;
31660;SDS011;18267;52.234;7.444;2023-11-22T01:49:00;12.32;;;6.38;;
31660;SDS011;18267;52.234;7.444;2023-11-22T01:51:26;15.80;;;6.25;;
31660;SDS011;18267;52.234;7.444;2023-11-22T01:53:54;13.95;;;5.90;;
31660;SDS011;18267;52.234;7.444;2023-11-22T01:56:22;16.17;;;6.18;;
31660;SDS011;18267;52.234;7.444;2023-11-22T01:58:50;16.73;;;5.85;;
31660;SDS011;18267;52.234;7.444;2023-11-22T02:01:16;15.77;;;6.75;;
31660;SDS011;18267;52.234;7.444;2023-11-22T02:03:42;11.57;;;5.75;;
31660;SDS011;18267;52.234;7.444;2023-11-22T02:06:11;18.13;;;6.55;;
31660;SDS011;18267;52.234;7.444;2023-11-22T02:08:36;11.93;;;6.18;;
31660;SDS011;18267;52.234;7.444;2023-11-22T02:11:02;14.85;;;7.07;;
31660;SDS011;18267;52.234;7.444;2023-11-22T02:13:29;15.50;;;6.80;;
31660;SDS011;18267;52.234;7.444;2023-11-22T02:15:55;12.98;;;6.32;;
31660;SDS011;18267;52.234;7.444;2023-11-22T02:18:21;12.27;;;5.15;;
31660;SDS011;18267;52.234;7.444;2023-11-22T02:20:48;15.05;;;6.10;;
31660;SDS011;18267;52.234;7.444;2023-11-22T02:23:14;8.68;;;5.63;;
31660;SDS011;18267;52.234;7.444;2023-11-22T02:25:40;13.85;;;6.32;;
31660;SDS011;18267;52.234;7.444;2023-11-22T02:28:05;17.98;;;6.07;;
31660;SDS011;18267;52.234;7.444;2023-11-22T02:30:33;19.02;;;6.07;;
31660;SDS011;18267;52.234;7.444;2023-11-22T02:32:59;12.90;;;5.78;;
31660;SDS011;18267;52.234;7.444;2023-11-22T02:35:24;13.93;;;6.47;;
31660;SDS011;18267;52.234;7.444;2023-11-22T02:37:51;10.65;;;5.43;;
31660;SDS011;18267;52.234;7.444;2023-11-22T02:40:20;10.77;;;5.80;;
31660;SDS011;18267;52.234;7.444;2023-11-22T02:42:47;12.85;;;5.85;;
31660;SDS011;18267;52.234;7.444;2023-11-22T02:45:17;11.10;;;5.10;;
31660;SDS011;18267;52.234;7.444;2023-11-22T02:47:49;13.00;;;5.13;;
31660;SDS011;18267;52.234;7.444;2023-11-22T02:50:15;11.38;;;5.72;;
31660;SDS011;18267;52.234;7.444;2023-11-22T02:52:41;9.98;;;5.55;;
31660;SDS011;18267;52.234;7.444;2023-11-22T02:55:07;11.60;;;5.82;;
31660;SDS011;18267;52.234;7.444;2023-11-22T02:57:37;11.45;;;6.00;;
31660;SDS011;18267;52.234;7.444;2023-11-22T03:00:05;12.55;;;6.22;;
31660;SDS011;18267;52.234;7.444;2023-11-22T03:02:32;15.52;;;7.07;;
31660;SDS011;18267;52.234;7.444;2023-11-22T03:04:58;11.50;;;5.70;;
31660;SDS011;18267;52.234;7.444;2023-11-22T03:07:27;11.65;;;6.45;;
31660;SDS011;18267;52.234;7.444;2023-11-22T03:09:53;9.10;;;5.50;;
31660;SDS011;18267;52.234;7.444;2023-11-22T03:12:19;12.18;;;5.78;;
31660;SDS011;18267;52.234;7.444;2023-11-22T03:14:45;14.73;;;5.80;;
31660;SDS011;18267;52.234;7.444;2023-11-22T03:17:16;16.75;;;6.05;;
31660;SDS011;18267;52.234;7.444;2023-11-22T03:19:42;11.02;;;5.72;;
31660;SDS011;18267;52.234;7.444;2023-11-22T03:22:10;10.75;;;6.05;;
31660;SDS011;18267;52.234;7.444;2023-11-22T03:24:35;11.27;;;5.35;;
31660;SDS011;18267;52.234;7.444;2023-11-22T03:27:03;17.02;;;6.07;;
31660;SDS011;18267;52.234;7.444;2023-11-22T03:29:29;11.48;;;5.50;;
31660;SDS011;18267;52.234;7.444;2023-11-22T03:31:54;11.65;;;5.22;;
31660;SDS011;18267;52.234;7.444;2023-11-22T03:34:20;10.77;;;5.65;;
31660;SDS011;18267;52.234;7.444;2023-11-22T03:36:46;11.43;;;5.70;;
31660;SDS011;18267;52.234;7.444;2023-11-22T03:39:12;11.25;;;5.32;;
31660;SDS011;18267;52.234;7.444;2023-11-22T03:41:39;9.35;;;4.93;;
31660;SDS011;18267;52.234;7.444;2023-11-22T03:44:05;11.75;;;4.95;;
31660;SDS011;18267;52.234;7.444;2023-11-22T03:46:34;13.00;;;5.32;;
31660;SDS011;18267;52.234;7.444;2023-11-22T03:49:01;12.80;;;5.65;;
31660;SDS011;18267;52.234;7.444;2023-11-22T03:51:28;12.05;;;4.60;;
31660;SDS011;18267;52.234;7.444;2023-11-22T03:53:53;12.25;;;4.97;;
31660;SDS011;18267;52.234;7.444;2023-11-22T03:56:19;10.18;;;4.80;;
31660;SDS011;18267;52.234;7.444;2023-11-22T03:58:44;11.48;;;5.55;;
31660;SDS011;18267;52.234;7.444;2023-11-22T04:01:10;11.07;;;5.50;;
31660;SDS011;18267;52.234;7.444;2023-11-22T04:03:35;14.30;;;5.70;;
31660;SDS011;18267;52.234;7.444;2023-11-22T04:06:01;14.25;;;5.75;;
31660;SDS011;18267;52.234;7.444;2023-11-22T04:08:27;12.40;;;4.97;;
31660;SDS011;18267;52.234;7.444;2023-11-22T04:10:53;10.82;;;5.53;;
31660;SDS011;18267;52.234;7.444;2023-11-22T04:13:18;12.15;;;5.72;;
31660;SDS011;18267;52.234;7.444;2023-11-22T04:15:44;10.57;;;5.72;;
31660;SDS011;18267;52.234;7.444;2023-11-22T04:18:09;16.63;;;6.07;;
31660;SDS011;18267;52.234;7.444;2023-11-22T04:20:35;8.75;;;4.72;;
31660;SDS011;18267;52.234;7.444;2023-11-22T04:23:01;9.70;;;5.97;;
31660;SDS011;18267;52.234;7.444;2023-11-22T04:25:26;8.65;;;5.05;;
31660;SDS011;18267;52.234;7.444;2023-11-22T04:27:52;10.93;;;5.57;;
31660;SDS011;18267;52.234;7.444;2023-11-22T04:30:18;11.95;;;5.60;;
31660;SDS011;18267;52.234;7.444;2023-11-22T04:32:43;10.85;;;5.60;;
31660;SDS011;18267;52.234;7.444;2023-11-22T04:35:09;16.13;;;5.47;;
31660;SDS011;18267;52.234;7.444;2023-11-22T04:37:35;16.95;;;6.25;;
31660;SDS011;18267;52.234;7.444;2023-11-22T04:40:02;12.73;;;5.65;;
31660;SDS011;18267;52.234;7.444;2023-11-22T04:42:29;11.18;;;5.70;;
31660;SDS011;18267;52.234;7.444;2023-11-22T04:44:54;11.45;;;6.03;;
31660;SDS011;18267;52.234;7.444;2023-11-22T04:47:20;10.10;;;5.07;;
31660;SDS011;18267;52.234;7.444;2023-11-22T04:49:48;10.63;;;5.53;;
31660;SDS011;18267;52.234;7.444;2023-11-22T04:52:14;11.57;;;4.95;;
31660;SDS011;18267;52.234;7.444;2023-11-22T04:54:40;14.23;;;5.65;;
31660;SDS011;18267;52.234;7.444;2023-11-22T04:57:05;10.60;;;5.32;;
31660;SDS011;18267;52.234;7.444;2023-11-22T04:59:31;10.77;;;4.97;;
31660;SDS011;18267;52.234;7.444;2023-11-22T05:01:57;9.80;;;5.15;;
31660;SDS011;18267;52.234;7.444;2023-11-22T05:04:22;6.97;;;4.40;;
31660;SDS011;18267;52.234;7.444;2023-11-22T05:06:48;8.90;;;4.82;;
31660;SDS011;18267;52.234;7.444;2023-11-22T05:09:14;10.50;;;5.63;;
31660;SDS011;18267;52.234;7.444;2023-11-22T05:11:40;9.00;;;4.80;;
31660;SDS011;18267;52.234;7.444;2023-11-22T05:14:06;14.02;;;5.30;;
31660;SDS011;18267;52.234;7.444;2023-11-22T05:16:32;8.75;;;4.40;;
31660;SDS011;18267;52.234;7.444;2023-11-22T05:18:58;11.38;;;4.97;;
31660;SDS011;18267;52.234;7.444;2023-11-22T05:21:24;11.82;;;5.82;;
31660;SDS011;18267;52.234;7.444;2023-11-22T05:23:50;17.50;;;5.88;;
31660;SDS011;18267;52.234;7.444;2023-11-22T05:26:15;14.15;;;6.45;;
31660;SDS011;18267;52.234;7.444;2023-11-22T05:28:41;12.18;;;6.10;;
31660;SDS011;18267;52.234;7.444;2023-11-22T05:31:06;11.20;;;4.97;;
31660;SDS011;18267;52.234;7.444;2023-11-22T05:33:32;11.52;;;5.57;;
31660;SDS011;18267;52.234;7.444;2023-11-22T05:35:57;13.43;;;5.45;;
31660;SDS011;18267;52.234;7.444;2023-11-22T05:38:23;12.18;;;5.90;;
31660;SDS011;18267;52.234;7.444;2023-11-22T05:40:49;11.18;;;5.40;;
31660;SDS011;18267;52.234;7.444;2023-11-22T05:43:14;11.15;;;5.63;;
31660;SDS011;18267;52.234;7.444;2023-11-22T05:45:40;12.00;;;5.25;;
31660;SDS011;18267;52.234;7.444;2023-11-22T05:48:06;12.77;;;6.55;;
31660;SDS011;18267;52.234;7.444;2023-11-22T05:50:31;10.52;;;5.43;;
31660;SDS011;18267;52.234;7.444;2023-11-22T05:52:57;12.25;;;6.75;;
31660;SDS011;18267;52.234;7.444;2023-11-22T05:55:22;16.80;;;6.95;;
31660;SDS011;18267;52.234;7.444;2023-11-22T05:57:48;13.05;;;6.80;;
31660;SDS011;18267;52.234;7.444;2023-11-22T06:00:14;20.88;;;7.72;;
31660;SDS011;18267;52.234;7.444;2023-11-22T06:02:40;17.17;;;7.40;;
31660;SDS011;18267;52.234;7.444;2023-11-22T06:05:06;14.48;;;7.57;;
31660;SDS011;18267;52.234;7.444;2023-11-22T06:07:32;16.88;;;7.55;;
31660;SDS011;18267;52.234;7.444;2023-11-22T06:09:58;16.08;;;7.95;;
31660;SDS011;18267;52.234;7.444;2023-11-22T06:12:24;21.30;;;7.03;;
31660;SDS011;18267;52.234;7.444;2023-11-22T06:14:49;17.15;;;7.05;;
31660;SDS011;18267;52.234;7.444;2023-11-22T06:17:15;14.98;;;6.60;;
31660;SDS011;18267;52.234;7.444;2023-11-22T06:19:40;16.00;;;7.28;;
31660;SDS011;18267;52.234;7.444;2023-11-22T06:22:06;14.35;;;6.95;;
31660;SDS011;18267;52.234;7.444;2023-11-22T06:24:32;18.00;;;7.78;;
31660;SDS011;18267;52.234;7.444;2023-11-22T06:26:59;15.30;;;7.53;;
31660;SDS011;18267;52.234;7.444;2023-11-22T06:29:24;18.10;;;8.18;;
31660;SDS011;18267;52.234;7.444;2023-11-22T06:31:50;12.30;;;6.95;;
31660;SDS011;18267;52.234;7.444;2023-11-22T06:34:15;13.15;;;7.55;;
31660;SDS011;18267;52.234;7.444;2023-11-22T06:36:41;16.02;;;8.05;;
31660;SDS011;18267;52.234;7.444;2023-11-22T06:39:07;15.07;;;7.65;;
31660;SDS011;18267;52.234;7.444;2023-11-22T06:41:34;20.50;;;8.38;;
31660;SDS011;18267;52.234;7.444;2023-11-22T06:43:59;13.68;;;7.55;;
31660;SDS011;18267;52.234;7.444;2023-11-22T06:46:25;19.23;;;8.23;;
31660;SDS011;18267;52.234;7.444;2023-11-22T06:48:51;17.90;;;8.18;;
31660;SDS011;18267;52.234;7.444;2023-11-22T06:51:16;20.67;;;7.63;;
31660;SDS011;18267;52.234;7.444;2023-11-22T06:53:44;21.30;;;7.97;;
31660;SDS011;18267;52.234;7.444;2023-11-22T06:56:10;17.42;;;8.63;;
31660;SDS011;18267;52.234;7.444;2023-11-22T06:58:36;17.48;;;7.95;;
31660;SDS011;18267;52.234;7.444;2023-11-22T07:01:01;18.65;;;9.23;;
31660;SDS011;18267;52.234;7.444;2023-11-22T07:03:27;19.63;;;8.55;;
31660;SDS011;18267;52.234;7.444;2023-11-22T07:05:52;19.70;;;8.07;;
31660;SDS011;18267;52.234;7.444;2023-11-22T07:08:18;11.27;;;6.78;;
31660;SDS011;18267;52.234;7.444;2023-11-22T07:10:44;18.70;;;8.95;;
31660;SDS011;18267;52.234;7.444;2023-11-22T07:13:11;22.80;;;9.00;;
31660;SDS011;18267;52.234;7.444;2023-11-22T07:15:37;16.90;;;8.05;;
31660;SDS011;18267;52.234;7.444;2023-11-22T07:18:03;14.88;;;6.53;;
31660;SDS011;18267;52.234;7.444;2023-11-22T07:20:30;15.02;;;7.07;;
31660;SDS011;18267;52.234;7.444;2023-11-22T07:22:56;11.38;;;6.57;;
31660;SDS011;18267;52.234;7.444;2023-11-22T07:25:22;15.68;;;6.30;;
31660;SDS011;18267;52.234;7.444;2023-11-22T07:27:50;11.52;;;6.55;;
31660;SDS011;18267;52.234;7.444;2023-11-22T07:30:16;14.40;;;7.60;;
31660;SDS011;18267;52.234;7.444;2023-11-22T07:32:48;16.23;;;7.35;;
31660;SDS011;18267;52.234;7.444;2023-11-22T07:35:19;14.90;;;7.32;;
31660;SDS011;18267;52.234;7.444;2023-11-22T07:37:45;17.02;;;7.55;;
31660;SDS011;18267;52.234;7.444;2023-11-22T07:40:12;22.08;;;8.52;;
31660;SDS011;18267;52.234;7.444;2023-11-22T07:42:39;16.92;;;8.23;;
31660;SDS011;18267;52.234;7.444;2023-11-22T07:45:05;13.80;;;8.27;;
31660;SDS011;18267;52.234;7.444;2023-11-22T07:47:31;14.35;;;7.50;;
31660;SDS011;18267;52.234;7.444;2023-11-22T07:49:57;9.80;;;6.15;;
31660;SDS011;18267;52.234;7.444;2023-11-22T07:52:23;10.23;;;5.75;;
31660;SDS011;18267;52.234;7.444;2023-11-22T07:54:57;14.88;;;6.95;;
31660;SDS011;18267;52.234;7.444;2023-11-22T07:57:24;10.75;;;5.60;;
31660;SDS011;18267;52.234;7.444;2023-11-22T07:59:50;11.35;;;6.07;;
31660;SDS011;18267;52.234;7.444;2023-11-22T08:02:19;13.98;;;6.05;;
31660;SDS011;18267;52.234;7.444;2023-11-22T08:04:45;8.70;;;5.05;;
31660;SDS011;18267;52.234;7.444;2023-11-22T08:07:11;9.88;;;5.70;;
31660;SDS011;18267;52.234;7.444;2023-11-22T08:09:40;12.85;;;6.40;;
31660;SDS011;18267;52.234;7.444;2023-11-22T08:12:06;7.90;;;5.18;;
31660;SDS011;18267;52.234;7.444;2023-11-22T08:14:32;10.23;;;5.57;;
31660;SDS011;18267;52.234;7.444;2023-11-22T08:16:58;10.95;;;5.63;;
31660;SDS011;18267;52.234;7.444;2023-11-22T08:19:24;10.80;;;5.30;;
31660;SDS011;18267;52.234;7.444;2023-11-22T08:21:49;25.67;;;6.53;;
31660;SDS011;18267;52.234;7.444;2023-11-22T08:24:16;10.18;;;5.80;;
31660;SDS011;18267;52.234;7.444;2023-11-22T08:26:41;10.70;;;6.13;;
31660;SDS011;18267;52.234;7.444;2023-11-22T08:29:07;13.70;;;7.50;;
31660;SDS011;18267;52.234;7.444;2023-11-22T08:31:33;17.30;;;7.38;;
31660;SDS011;18267;52.234;7.444;2023-11-22T08:34:01;13.35;;;7.00;;
31660;SDS011;18267;52.234;7.444;2023-11-22T08:36:29;15.57;;;7.38;;
31660;SDS011;18267;52.234;7.444;2023-11-22T08:38:58;14.10;;;7.63;;
31660;SDS011;18267;52.234;7.444;2023-11-22T08:41:25;13.15;;;6.63;;
31660;SDS011;18267;52.234;7.444;2023-11-22T08:43:52;14.23;;;7.88;;
31660;SDS011;18267;52.234;7.444;2023-11-22T08:46:17;15.52;;;8.52;;
31660;SDS011;18267;52.234;7.444;2023-11-22T08:48:43;20.80;;;7.85;;
31660;SDS011;18267;52.234;7.444;2023-11-22T08:51:09;21.50;;;8.40;;
31660;SDS011;18267;52.234;7.444;2023-11-22T08:53:37;22.38;;;8.32;;
31660;SDS011;18267;52.234;7.444;2023-11-22T08:56:03;15.48;;;8.25;;
31660;SDS011;18267;52.234;7.444;2023-11-22T08:58:34;9.27;;;6.15;;
31660;SDS011;18267;52.234;7.444;2023-11-22T09:00:59;14.23;;;7.13;;
31660;SDS011;18267;52.234;7.444;2023-11-22T09:03:25;13.50;;;7.35;;
31660;SDS011;18267;52.234;7.444;2023-11-22T09:05:51;15.63;;;7.60;;
31660;SDS011;18267;52.234;7.444;2023-11-22T09:08:18;12.93;;;6.90;;
31660;SDS011;18267;52.234;7.444;2023-11-22T09:10:45;17.83;;;7.32;;
31660;SDS011;18267;52.234;7.444;2023-11-22T09:13:11;13.73;;;7.40;;
31660;SDS011;18267;52.234;7.444;2023-11-22T09:15:40;19.25;;;7.75;;
31660;SDS011;18267;52.234;7.444;2023-11-22T09:18:06;14.27;;;7.22;;
31660;SDS011;18267;52.234;7.444;2023-11-22T09:20:33;13.05;;;7.30;;
31660;SDS011;18267;52.234;7.444;2023-11-22T09:22:58;15.20;;;7.72;;
31660;SDS011;18267;52.234;7.444;2023-11-22T09:25:24;13.80;;;7.38;;
31660;SDS011;18267;52.234;7.444;2023-11-22T09:27:54;17.63;;;7.30;;
31660;SDS011;18267;52.234;7.444;2023-11-22T09:30:21;13.55;;;6.70;;
31660;SDS011;18267;52.234;7.444;2023-11-22T09:32:58;13.48;;;7.03;;
31660;SDS011;18267;52.234;7.444;2023-11-22T09:35:24;9.00;;;6.00;;
31660;SDS011;18267;52.234;7.444;2023-11-22T09:37:50;11.10;;;6.35;;
31660;SDS011;18267;52.234;7.444;2023-11-22T09:40:19;9.73;;;6.13;;
31660;SDS011;18267;52.234;7.444;2023-11-22T09:42:47;12.48;;;6.72;;
31660;SDS011;18267;52.234;7.444;2023-11-22T09:45:16;18.65;;;6.53;;
31660;SDS011;18267;52.234;7.444;2023-11-22T09:47:48;12.13;;;6.53;;
31660;SDS011;18267;52.234;7.444;2023-11-22T09:50:19;15.05;;;5.80;;
31660;SDS011;18267;52.234;7.444;2023-11-22T09:52:51;9.73;;;5.78;;
31660;SDS011;18267;52.234;7.444;2023-11-22T09:55:19;9.98;;;5.60;;
31660;SDS011;18267;52.234;7.444;2023-11-22T09:57:47;12.77;;;5.68;;
31660;SDS011;18267;52.234;7.444;2023-11-22T10:00:14;9.75;;;5.10;;
31660;SDS011;18267;52.234;7.444;2023-11-22T10:02:43;10.98;;;5.85;;
31660;SDS011;18267;52.234;7.444;2023-11-22T10:05:10;8.18;;;4.63;;
31660;SDS011;18267;52.234;7.444;2023-11-22T10:07:36;12.13;;;5.43;;
31660;SDS011;18267;52.234;7.444;2023-11-22T10:10:03;7.85;;;4.90;;
31660;SDS011;18267;52.234;7.444;2023-11-22T10:12:30;10.30;;;5.60;;
31660;SDS011;18267;52.234;7.444;2023-11-22T10:15:12;8.88;;;5.60;;
31660;SDS011;18267;52.234;7.444;2023-11-22T10:17:38;9.23;;;5.65;;
31660;SDS011;18267;52.234;7.444;2023-11-22T10:20:04;12.73;;;6.03;;
31660;SDS011;18267;52.234;7.444;2023-11-22T10:22:45;11.95;;;6.35;;
31660;SDS011;18267;52.234;7.444;2023-11-22T10:25:13;8.20;;;5.43;;
31660;SDS011;18267;52.234;7.444;2023-11-22T10:27:43;10.13;;;5.47;;
31660;SDS011;18267;52.234;7.444;2023-11-22T10:30:12;12.73;;;5.53;;
31660;SDS011;18267;52.234;7.444;2023-11-22T10:32:39;9.30;;;5.22;;
31660;SDS011;18267;52.234;7.444;2023-11-22T10:35:06;9.57;;;5.30;;
31660;SDS011;18267;52.234;7.444;2023-11-22T10:37:35;10.00;;;5.38;;
31660;SDS011;18267;52.234;7.444;2023-11-22T10:40:01;9.80;;;5.55;;
31660;SDS011;18267;52.234;7.444;2023-11-22T10:42:30;12.07;;;4.93;;
31660;SDS011;18267;52.234;7.444;2023-11-22T10:44:55;12.15;;;5.10;;
31660;SDS011;18267;52.234;7.444;2023-11-22T10:47:24;8.90;;;5.00;;
31660;SDS011;18267;52.234;7.444;2023-11-22T10:49:54;8.70;;;4.60;;
31660;SDS011;18267;52.234;7.444;2023-11-22T10:52:20;10.25;;;5.82;;
31660;SDS011;18267;52.234;7.444;2023-11-22T10:54:52;9.00;;;4.95;;
31660;SDS011;18267;52.234;7.444;2023-11-22T10:57:26;9.18;;;5.18;;
31660;SDS011;18267;52.234;7.444;2023-11-22T10:59:57;11.20;;;5.07;;
31660;SDS011;18267;52.234;7.444;2023-11-22T11:02:33;9.88;;;5.32;;
31660;SDS011;18267;52.234;7.444;2023-11-22T11:05:09;8.23;;;4.55;;
31660;SDS011;18267;52.234;7.444;2023-11-22T11:07:42;9.75;;;3.95;;
31660;SDS011;18267;52.234;7.444;2023-11-22T11:10:12;6.10;;;3.90;;
31660;SDS011;18267;52.234;7.444;2023-11-22T11:12:38;7.50;;;4.57;;
31660;SDS011;18267;52.234;7.444;2023-11-22T11:15:04;7.95;;;3.95;;
31660;SDS011;18267;52.234;7.444;2023-11-22T11:17:32;6.50;;;3.92;;
31660;SDS011;18267;52.234;7.444;2023-11-22T11:19:59;10.00;;;3.65;;
31660;SDS011;18267;52.234;7.444;2023-11-22T11:22:24;4.57;;;3.63;;
31660;SDS011;18267;52.234;7.444;2023-11-22T11:24:51;11.27;;;5.03;;
31660;SDS011;18267;52.234;7.444;2023-11-22T11:27:28;6.18;;;3.78;;
31660;SDS011;18267;52.234;7.444;2023-11-22T11:29:54;6.63;;;3.90;;
31660;SDS011;18267;52.234;7.444;2023-11-22T11:32:32;5.45;;;3.25;;
31660;SDS011;18267;52.234;7.444;2023-11-22T11:34:58;4.75;;;3.03;;
31660;SDS011;18267;52.234;7.444;2023-11-22T11:37:25;7.20;;;3.35;;
31660;SDS011;18267;52.234;7.444;2023-11-22T11:39:54;6.47;;;3.33;;
31660;SDS011;18267;52.234;7.444;2023-11-22T11:42:20;5.97;;;3.08;;
31660;SDS011;18267;52.234;7.444;2023-11-22T11:47:27;5.53;;;3.00;;
31660;SDS011;18267;52.234;7.444;2023-11-22T11:49:52;5.28;;;3.15;;
31660;SDS011;18267;52.234;7.444;2023-11-22T11:52:20;5.20;;;3.10;;
31660;SDS011;18267;52.234;7.444;2023-11-22T11:54:45;5.22;;;3.20;;
31660;SDS011;18267;52.234;7.444;2023-11-22T11:57:11;5.72;;;3.25;;
31660;SDS011;18267;52.234;7.444;2023-11-22T11:59:37;7.75;;;3.13;;
31660;SDS011;18267;52.234;7.444;2023-11-22T12:02:03;4.45;;;3.08;;
31660;SDS011;18267;52.234;7.444;2023-11-22T12:04:31;3.88;;;2.58;;
31660;SDS011;18267;52.234;7.444;2023-11-22T12:06:58;4.22;;;3.03;;
31660;SDS011;18267;52.234;7.444;2023-11-22T12:09:26;3.60;;;2.22;;
31660;SDS011;18267;52.234;7.444;2023-11-22T12:11:55;4.18;;;2.45;;
31660;SDS011;18267;52.234;7.444;2023-11-22T12:14:21;3.25;;;2.10;;
31660;SDS011;18267;52.234;7.444;2023-11-22T12:16:50;8.25;;;2.80;;
31660;SDS011;18267;52.234;7.444;2023-11-22T12:19:26;3.83;;;2.45;;
31660;SDS011;18267;52.234;7.444;2023-11-22T12:21:53;6.10;;;2.58;;
31660;SDS011;18267;52.234;7.444;2023-11-22T12:24:19;4.03;;;2.40;;
31660;SDS011;18267;52.234;7.444;2023-11-22T12:26:45;4.60;;;2.50;;
31660;SDS011;18267;52.234;7.444;2023-11-22T12:29:14;6.57;;;2.70;;
31660;SDS011;18267;52.234;7.444;2023-11-22T12:31:44;3.45;;;2.88;;
31660;SDS011;18267;52.234;7.444;2023-11-22T12:34:15;7.57;;;2.20;;
31660;SDS011;18267;52.234;7.444;2023-11-22T12:36:42;4.78;;;2.33;;
31660;SDS011;18267;52.234;7.444;2023-11-22T12:39:08;5.85;;;2.70;;
31660;SDS011;18267;52.234;7.444;2023-11-22T12:41:42;4.63;;;2.25;;
31660;SDS011;18267;52.234;7.444;2023-11-22T12:44:15;8.50;;;3.00;;
31660;SDS011;18267;52.234;7.444;2023-11-22T12:49:22;3.90;;;2.45;;
31660;SDS011;18267;52.234;7.444;2023-11-22T12:51:49;4.72;;;2.85;;
31660;SDS011;18267;52.234;7.444;2023-11-22T12:54:15;6.88;;;2.50;;
31660;SDS011;18267;52.234;7.444;2023-11-22T12:56:41;5.53;;;2.50;;
31660;SDS011;18267;52.234;7.444;2023-11-22T12:59:07;3.72;;;2.25;;
31660;SDS011;18267;52.234;7.444;2023-11-22T13:01:36;3.03;;;2.33;;
31660;SDS011;18267;52.234;7.444;2023-11-22T13:04:02;4.05;;;2.38;;
31660;SDS011;18267;52.234;7.444;2023-11-22T13:06:28;3.50;;;2.20;;
31660;SDS011;18267;52.234;7.444;2023-11-22T13:08:54;5.97;;;1.85;;
31660;SDS011;18267;52.234;7.444;2023-11-22T13:11:21;6.32;;;2.63;;
31660;SDS011;18267;52.234;7.444;2023-11-22T13:13:47;4.03;;;1.83;;
31660;SDS011;18267;52.234;7.444;2023-11-22T13:16:12;4.88;;;2.30;;
31660;SDS011;18267;52.234;7.444;2023-11-22T13:18:42;5.85;;;1.85;;
31660;SDS011;18267;52.234;7.444;2023-11-22T13:21:08;3.70;;;1.95;;
31660;SDS011;18267;52.234;7.444;2023-11-22T13:23:33;3.10;;;1.90;;
31660;SDS011;18267;52.234;7.444;2023-11-22T13:25:59;7.10;;;2.20;;
31660;SDS011;18267;52.234;7.444;2023-11-22T13:28:25;2.90;;;1.70;;
31660;SDS011;18267;52.234;7.444;2023-11-22T13:30:53;2.97;;;1.73;;
31660;SDS011;18267;52.234;7.444;2023-11-22T13:33:19;2.72;;;1.70;;
31660;SDS011;18267;52.234;7.444;2023-11-22T13:35:44;3.75;;;1.95;;
31660;SDS011;18267;52.234;7.444;2023-11-22T13:38:12;2.47;;;1.50;;
31660;SDS011;18267;52.234;7.444;2023-11-22T13:40:38;5.28;;;2.22;;
31660;SDS011;18267;52.234;7.444;2023-11-22T13:43:05;2.20;;;1.52;;
31660;SDS011;18267;52.234;7.444;2023-11-22T13:45:32;2.03;;;1.60;;
31660;SDS011;18267;52.234;7.444;2023-11-22T13:48:01;4.93;;;1.88;;
31660;SDS011;18267;52.234;7.444;2023-11-22T13:50:31;4.65;;;2.13;;
31660;SDS011;18267;52.234;7.444;2023-11-22T13:52:57;4.28;;;1.80;;
31660;SDS011;18267;52.234;7.444;2023-11-22T13:55:24;8.05;;;2.05;;
31660;SDS011;18267;52.234;7.444;2023-11-22T13:57:54;1.70;;;1.33;;
31660;SDS011;18267;52.234;7.444;2023-11-22T14:00:21;4.68;;;2.17;;
31660;SDS011;18267;52.234;7.444;2023-11-22T14:02:49;2.72;;;1.95;;
31660;SDS011;18267;52.234;7.444;2023-11-22T14:05:16;4.32;;;1.95;;
31660;SDS011;18267;52.234;7.444;2023-11-22T14:07:42;3.55;;;1.77;;
31660;SDS011;18267;52.234;7.444;2023-11-22T14:10:11;2.25;;;1.58;;
31660;SDS011;18267;52.234;7.444;2023-11-22T14:12:37;5.07;;;1.88;;
31660;SDS011;18267;52.234;7.444;2023-11-22T14:15:03;5.18;;;2.05;;
31660;SDS011;18267;52.234;7.444;2023-11-22T14:17:30;3.83;;;2.60;;
31660;SDS011;18267;52.234;7.444;2023-11-22T14:19:56;4.70;;;1.73;;
31660;SDS011;18267;52.234;7.444;2023-11-22T14:22:22;2.70;;;1.80;;
31660;SDS011;18267;52.234;7.444;2023-11-22T14:24:51;5.70;;;1.92;;
31660;SDS011;18267;52.234;7.444;2023-11-22T14:27:17;5.10;;;1.92;;
31660;SDS011;18267;52.234;7.444;2023-11-22T14:29:43;2.88;;;1.50;;
31660;SDS011;18267;52.234;7.444;2023-11-22T14:32:12;4.47;;;2.15;;
31660;SDS011;18267;52.234;7.444;2023-11-22T14:34:38;2.45;;;1.70;;
31660;SDS011;18267;52.234;7.444;2023-11-22T14:37:05;3.38;;;1.73;;
31660;SDS011;18267;52.234;7.444;2023-11-22T14:39:32;7.13;;;1.75;;
31660;SDS011;18267;52.234;7.444;2023-11-22T14:42:00;2.30;;;1.67;;